createdAt,value
2023-06-29T00:02:27.217Z,57.38
2023-06-29T00:04:57.030Z,57.34
2023-06-29T00:07:26.389Z,57.29
2023-06-29T00:09:55.956Z,57.19
2023-06-29T00:12:22.592Z,57.29
2023-06-29T00:14:49.333Z,57.41
2023-06-29T00:17:16.227Z,57.64
2023-06-29T00:19:43.303Z,57.66
2023-06-29T00:22:10.917Z,57.76
2023-06-29T00:24:43.688Z,57.61
2023-06-29T00:27:13.405Z,57.56
2023-06-29T00:29:44.554Z,57.65
2023-06-29T00:32:12.149Z,58.21
2023-06-29T00:34:38.845Z,58.18
2023-06-29T00:37:06.469Z,58.13
2023-06-29T00:39:33.950Z,58.06
2023-06-29T00:42:01.154Z,58.18
2023-06-29T00:44:27.848Z,58.10
2023-06-29T00:46:55.309Z,57.94
2023-06-29T00:49:23.462Z,57.86
2023-06-29T00:51:55.450Z,58.13
2023-06-29T00:54:23.307Z,58.53
2023-06-29T00:56:50.605Z,58.55
2023-06-29T00:59:17.830Z,58.48
2023-06-29T01:01:46.888Z,58.41
2023-06-29T01:04:18.835Z,58.53
2023-06-29T01:06:59.363Z,58.66
2023-06-29T01:09:27.513Z,58.52
2023-06-29T01:11:55.350Z,58.53
2023-06-29T01:14:26.553Z,59.03
2023-06-29T01:16:55.695Z,59.08
2023-06-29T01:19:32.710Z,59.20
2023-06-29T01:22:15.804Z,59.45
2023-06-29T01:24:43.280Z,59.29
2023-06-29T01:27:14.090Z,59.19
2023-06-29T01:29:41.818Z,58.99
2023-06-29T01:32:11.425Z,58.93
2023-06-29T01:34:39.618Z,58.70
2023-06-29T01:37:26.903Z,58.73
2023-06-29T01:40:01.306Z,58.59
2023-06-29T01:42:32.944Z,58.51
2023-06-29T01:45:06.955Z,58.63
2023-06-29T01:47:35.122Z,58.59
2023-06-29T01:50:03.730Z,58.90
2023-06-29T01:52:31.299Z,59.17
2023-06-29T01:54:58.044Z,59.04
2023-06-29T01:57:25.049Z,59.11
2023-06-29T01:59:52.030Z,59.05
2023-06-29T02:02:18.778Z,58.77
2023-06-29T02:04:45.518Z,58.67
2023-06-29T02:07:12.292Z,58.59
2023-06-29T02:09:38.916Z,59.02
2023-06-29T02:12:06.494Z,59.03
2023-06-29T02:14:33.236Z,59.29
2023-06-29T02:16:59.934Z,59.21
2023-06-29T02:19:26.656Z,59.06
2023-06-29T02:21:53.556Z,59.38
2023-06-29T02:24:20.476Z,59.29
2023-06-29T02:26:47.110Z,59.38
2023-06-29T02:29:13.908Z,59.21
2023-06-29T02:31:40.581Z,59.49
2023-06-29T02:34:07.420Z,59.41
2023-06-29T02:36:34.105Z,59.60
2023-06-29T02:39:00.842Z,59.59
2023-06-29T02:41:27.570Z,59.52
2023-06-29T02:43:54.588Z,59.69
2023-06-29T02:46:21.395Z,59.70
2023-06-29T02:48:48.195Z,59.66
2023-06-29T02:51:15.190Z,59.54
2023-06-29T02:53:42.013Z,59.44
2023-06-29T02:56:08.644Z,59.46
2023-06-29T02:58:35.348Z,59.77
2023-06-29T03:01:02.074Z,60.04
2023-06-29T03:03:28.887Z,60.08
2023-06-29T03:05:55.679Z,59.78
2023-06-29T03:08:22.312Z,59.68
2023-06-29T03:10:49.017Z,59.56
2023-06-29T03:13:15.643Z,59.32
2023-06-29T03:15:42.645Z,59.21
2023-06-29T03:18:09.688Z,59.28
2023-06-29T03:20:37.022Z,59.48
2023-06-29T03:23:03.668Z,59.46
2023-06-29T03:25:30.309Z,59.82
2023-06-29T03:27:57.500Z,60.30
2023-06-29T03:30:24.180Z,60.32
2023-06-29T03:32:51.027Z,60.45
2023-06-29T03:35:17.689Z,60.75
2023-06-29T03:37:44.402Z,60.70
2023-06-29T03:40:11.884Z,60.83
2023-06-29T03:42:38.671Z,61.14
2023-06-29T03:45:06.128Z,61.26
2023-06-29T03:47:32.883Z,61.22
2023-06-29T03:49:59.629Z,61.34
2023-06-29T03:52:26.269Z,61.27
2023-06-29T03:54:53.304Z,61.54
2023-06-29T03:57:20.217Z,61.37
2023-06-29T03:59:47.005Z,61.20
2023-06-29T04:02:13.963Z,60.92
2023-06-29T04:04:40.713Z,60.75
2023-06-29T04:07:07.454Z,60.90
2023-06-29T04:09:34.147Z,60.82
2023-06-29T04:12:00.865Z,60.60
2023-06-29T04:14:27.489Z,60.39
2023-06-29T04:16:54.183Z,59.96
2023-06-29T04:19:20.800Z,60.05
2023-06-29T04:21:47.434Z,59.84
2023-06-29T04:24:14.240Z,60.08
2023-06-29T04:26:42.508Z,60.09
2023-06-29T04:29:09.353Z,60.20
2023-06-29T04:31:36.203Z,60.14
2023-06-29T04:34:05.748Z,60.52
2023-06-29T04:36:32.795Z,60.60
2023-06-29T04:39:00.202Z,60.56
2023-06-29T04:41:33.295Z,60.61
2023-06-29T04:44:01.597Z,60.83
2023-06-29T04:46:32.111Z,60.95
2023-06-29T04:49:07.598Z,61.19
2023-06-29T04:51:36.693Z,61.08
2023-06-29T04:54:06.990Z,61.21
2023-06-29T04:56:33.850Z,61.26
2023-06-29T04:59:00.606Z,61.17
2023-06-29T05:01:27.563Z,61.50
2023-06-29T05:03:54.572Z,61.47
2023-06-29T05:06:21.382Z,61.09
2023-06-29T05:08:48.171Z,61.38
2023-06-29T05:11:14.856Z,61.13
2023-06-29T05:13:41.611Z,61.16
2023-06-29T05:16:08.337Z,61.33
2023-06-29T05:18:38.277Z,61.53
2023-06-29T05:21:05.159Z,61.56
2023-06-29T05:23:32.110Z,61.54
2023-06-29T05:25:58.719Z,61.30
2023-06-29T05:28:25.460Z,61.17
2023-06-29T05:30:52.278Z,61.07
2023-06-29T05:33:19.055Z,61.31
2023-06-29T05:35:46.463Z,61.26
2023-06-29T05:38:13.669Z,61.56
2023-06-29T05:40:40.280Z,61.23
2023-06-29T05:43:07.175Z,60.96
2023-06-29T05:45:33.961Z,61.19
2023-06-29T05:48:00.856Z,60.97
2023-06-29T05:50:27.513Z,60.78
2023-06-29T05:52:54.130Z,60.66
2023-06-29T05:55:21.049Z,60.90
2023-06-29T05:57:48.927Z,60.93
2023-06-29T06:00:16.561Z,60.85
2023-06-29T06:02:43.152Z,60.51
2023-06-29T06:05:11.611Z,60.11
2023-06-29T06:07:39.539Z,60.05
2023-06-29T06:10:07.161Z,59.84
2023-06-29T06:12:33.900Z,59.74
2023-06-29T06:15:00.565Z,59.43
2023-06-29T06:17:27.362Z,59.17
2023-06-29T06:19:55.953Z,59.09
2023-06-29T06:22:25.119Z,58.94
2023-06-29T06:24:52.218Z,59.10
2023-06-29T06:27:20.511Z,59.34
2023-06-29T06:29:53.050Z,58.69
2023-06-29T06:32:22.492Z,58.17
2023-06-29T06:34:52.587Z,57.85
2023-06-29T06:37:20.460Z,57.48
2023-06-29T06:39:47.809Z,57.88
2023-06-29T06:42:15.879Z,57.88
2023-06-29T06:44:58.661Z,58.12
2023-06-29T06:47:26.516Z,57.55
2023-06-29T06:49:53.326Z,57.28
2023-06-29T06:52:20.019Z,57.12
2023-06-29T06:54:46.743Z,56.63
2023-06-29T06:57:13.519Z,56.42
2023-06-29T06:59:40.464Z,56.40
2023-06-29T07:02:07.692Z,56.31
2023-06-29T07:04:34.714Z,56.17
2023-06-29T07:07:01.726Z,55.78
2023-06-29T07:09:28.466Z,55.41
2023-06-29T07:11:55.781Z,54.99
2023-06-29T07:14:22.649Z,54.78
2023-06-29T07:16:49.545Z,54.63
2023-06-29T07:24:06.420Z,54.33
2023-06-29T07:24:33.855Z,54.45
2023-06-29T07:27:00.913Z,54.63
2023-06-29T07:29:28.313Z,53.95
2023-06-29T07:31:55.082Z,53.44
2023-06-29T07:34:24.513Z,53.29
2023-06-29T07:36:52.396Z,52.96
2023-06-29T07:39:19.289Z,52.83
2023-06-29T07:41:46.002Z,52.62
2023-06-29T07:44:12.700Z,52.23
2023-06-29T07:46:39.628Z,52.05
2023-06-29T07:49:06.313Z,51.78
2023-06-29T07:51:36.124Z,51.12
2023-06-29T07:54:05.468Z,51.31
2023-06-29T07:59:05.216Z,51.31
2023-06-29T08:01:36.097Z,50.90
2023-06-29T08:04:04.777Z,51.07
2023-06-29T08:09:03.507Z,50.70
2023-06-29T08:11:30.657Z,50.24
2023-06-29T08:13:57.507Z,50.15
2023-06-29T08:16:24.221Z,49.77
2023-06-29T08:18:51.160Z,49.64
2023-06-29T08:21:19.351Z,49.38
2023-06-29T08:23:54.028Z,49.36
2023-06-29T08:26:22.117Z,49.41
2023-06-29T08:28:49.297Z,49.10
2023-06-29T08:31:26.109Z,49.34
2023-06-29T08:33:58.959Z,49.54
2023-06-29T08:36:26.616Z,49.21
2023-06-29T08:38:53.410Z,49.16
2023-06-29T08:41:20.332Z,49.22
2023-06-29T08:43:47.136Z,48.84
2023-06-29T08:46:14.180Z,48.37
2023-06-29T08:48:45.839Z,48.38
2023-06-29T08:51:17.442Z,48.10
2023-06-29T08:53:44.962Z,47.91
2023-06-29T08:56:13.660Z,48.10
2023-06-29T08:58:40.830Z,48.34
2023-06-29T09:01:08.511Z,47.82
2023-06-29T09:03:37.263Z,48.11
2023-06-29T09:06:04.869Z,48.37
2023-06-29T09:08:31.804Z,47.93
2023-06-29T09:10:59.211Z,47.83
2023-06-29T09:13:28.852Z,48.01
2023-06-29T09:15:55.955Z,48.27
2023-06-29T09:18:41.276Z,48.00
2023-06-29T09:21:10.093Z,48.00
2023-06-29T09:23:43.977Z,48.04
2023-06-29T09:26:10.785Z,47.60
2023-06-29T09:28:47.580Z,47.59
2023-06-29T09:31:15.123Z,47.59
2023-06-29T09:33:41.878Z,46.91
2023-06-29T09:36:09.740Z,46.88
2023-06-29T09:38:36.797Z,46.90
2023-06-29T09:41:07.780Z,47.08
2023-06-29T09:43:34.542Z,46.97
2023-06-29T09:46:08.380Z,46.52
2023-06-29T09:51:24.536Z,46.48
2023-06-29T09:53:51.673Z,46.25
2023-06-29T09:56:19.005Z,46.25
2023-06-29T09:58:47.634Z,45.67
2023-06-29T10:01:19.350Z,45.96
2023-06-29T10:03:46.296Z,45.47
2023-06-29T10:06:23.198Z,45.35
2023-06-29T10:08:57.166Z,45.49
2023-06-29T10:11:31.185Z,45.35
2023-06-29T10:14:02.955Z,44.97
2023-06-29T10:16:36.024Z,44.82
2023-06-29T10:19:24.190Z,44.50
2023-06-29T10:22:16.848Z,44.29
2023-06-29T10:24:47.104Z,43.83
2023-06-29T10:27:15.921Z,43.65
2023-06-29T10:29:46.845Z,43.90
2023-06-29T10:32:37.982Z,43.67
2023-06-29T10:35:13.304Z,43.56
2023-06-29T10:37:44.913Z,43.75
2023-06-29T10:40:11.908Z,43.53
2023-06-29T10:42:54.358Z,43.37
2023-06-29T10:45:21.510Z,43.51
2023-06-29T10:47:57.570Z,43.42
2023-06-29T10:50:36.865Z,43.47
2023-06-29T10:53:06.810Z,43.59
2023-06-29T10:55:44.167Z,43.50
2023-06-29T10:58:36.445Z,43.58
2023-06-29T11:01:03.312Z,44.23
2023-06-29T11:03:30.493Z,44.48
2023-06-29T11:05:59.789Z,44.53
2023-06-29T11:08:36.477Z,44.90
2023-06-29T11:11:15.962Z,45.72
2023-06-29T11:13:43.089Z,45.53
2023-06-29T11:16:10.232Z,45.50
2023-06-29T11:18:36.900Z,45.47
2023-06-29T11:21:03.682Z,45.78
2023-06-29T11:23:30.386Z,45.54
2023-06-29T11:26:02.235Z,44.79
2023-06-29T11:28:33.728Z,45.32
2023-06-29T11:31:01.759Z,45.74
2023-06-29T11:36:15.408Z,45.21
2023-06-29T11:38:42.334Z,45.03
2023-06-29T11:41:10.282Z,45.32
2023-06-29T11:43:37.345Z,44.90
2023-06-29T11:46:04.328Z,44.82
2023-06-29T11:48:31.430Z,44.63
2023-06-29T11:51:02.082Z,44.18
2023-06-29T11:53:30.288Z,44.10
2023-06-29T11:55:58.008Z,44.07
2023-06-29T11:58:34.289Z,44.00
2023-06-29T12:01:01.016Z,43.79
2023-06-29T12:03:27.946Z,43.58
2023-06-29T12:05:59.362Z,43.36
2023-06-29T12:08:26.440Z,43.82
2023-06-29T12:10:53.191Z,43.72
2023-06-29T12:13:22.194Z,43.55
2023-06-29T12:18:18.568Z,43.31
2023-06-29T12:20:48.752Z,42.91
2023-06-29T12:23:16.100Z,42.57
2023-06-29T12:25:47.472Z,42.40
2023-06-29T12:28:15.214Z,42.28
2023-06-29T12:30:42.350Z,41.90
2023-06-29T12:33:13.528Z,41.79
2023-06-29T12:35:40.769Z,40.96
2023-06-29T12:38:07.753Z,41.40
2023-06-29T12:40:35.026Z,40.79
2023-06-29T12:43:02.883Z,40.20
2023-06-29T12:45:29.890Z,39.96
2023-06-29T12:47:57.077Z,39.43
2023-06-29T12:50:23.867Z,38.94
2023-06-29T12:52:51.011Z,39.12
2023-06-29T12:55:18.060Z,39.17
2023-06-29T12:57:45.487Z,39.28
2023-06-29T13:00:13.719Z,39.53
2023-06-29T13:02:42.029Z,39.49
2023-06-29T13:05:09.564Z,39.70
2023-06-29T13:07:37.099Z,40.00
2023-06-29T13:10:05.283Z,39.95
2023-06-29T13:12:32.485Z,40.05
2023-06-29T13:15:00.112Z,40.40
2023-06-29T13:17:27.419Z,40.68
2023-06-29T13:19:54.220Z,41.06
2023-06-29T13:22:21.052Z,41.33
2023-06-29T13:24:48.329Z,41.82
2023-06-29T13:27:15.622Z,42.07
2023-06-29T13:29:43.595Z,42.28
2023-06-29T13:32:10.480Z,42.42
2023-06-29T13:34:37.212Z,42.55
2023-06-29T13:37:04.632Z,43.08
2023-06-29T13:39:31.501Z,43.31
2023-06-29T13:41:58.358Z,43.61
2023-06-29T13:44:25.167Z,43.66
2023-06-29T13:46:51.852Z,44.04
2023-06-29T13:49:18.552Z,43.99
2023-06-29T13:51:46.334Z,44.05
2023-06-29T13:54:14.547Z,44.36
2023-06-29T13:56:41.217Z,45.01
2023-06-29T13:59:10.566Z,44.83
2023-06-29T14:01:41.496Z,44.96
2023-06-29T14:04:11.946Z,45.02
2023-06-29T14:06:43.545Z,44.96
2023-06-29T14:09:12.467Z,44.96
2023-06-29T14:11:40.051Z,45.22
2023-06-29T14:14:07.468Z,45.62
2023-06-29T14:16:34.407Z,45.51
2023-06-29T14:19:01.428Z,45.97
2023-06-29T14:21:28.838Z,46.23
2023-06-29T14:23:56.464Z,45.96
2023-06-29T14:26:23.812Z,46.17
2023-06-29T14:28:50.497Z,46.41
2023-06-29T14:31:18.406Z,46.31
2023-06-29T14:33:46.623Z,46.46
2023-06-29T14:36:13.878Z,46.87
2023-06-29T14:38:40.617Z,47.18
2023-06-29T14:41:07.359Z,47.31
2023-06-29T14:43:34.221Z,47.70
2023-06-29T14:46:01.122Z,48.17
2023-06-29T14:48:28.132Z,48.27
2023-06-29T14:50:55.124Z,48.49
2023-06-29T14:53:23.766Z,49.00
2023-06-29T14:56:04.054Z,49.63
2023-06-29T14:58:31.230Z,49.68
2023-06-29T15:00:58.038Z,49.96
2023-06-29T15:03:24.780Z,49.82
2023-06-29T15:05:51.491Z,50.68
2023-06-29T15:08:18.118Z,51.30
2023-06-29T15:10:44.899Z,51.19
2023-06-29T15:13:11.547Z,51.26
2023-06-29T15:15:38.167Z,51.09
2023-06-29T15:18:05.950Z,51.14
2023-06-29T15:20:32.936Z,50.93
2023-06-29T15:22:59.627Z,51.26
2023-06-29T15:25:26.444Z,50.77
2023-06-29T15:27:53.546Z,50.72
2023-06-29T15:30:20.545Z,50.74
2023-06-29T15:32:47.291Z,51.37
2023-06-29T15:35:14.229Z,50.94
2023-06-29T15:37:41.213Z,50.33
2023-06-29T15:40:08.696Z,50.05
2023-06-29T15:42:35.738Z,49.46
2023-06-29T15:45:04.772Z,49.19
2023-06-29T15:47:33.126Z,48.93
2023-06-29T15:50:01.234Z,48.93
2023-06-29T15:52:28.869Z,49.17
2023-06-29T15:54:55.503Z,49.08
2023-06-29T15:57:22.278Z,48.84
2023-06-29T15:59:48.976Z,48.85
2023-06-29T16:02:15.796Z,48.52
2023-06-29T16:04:42.573Z,48.21
2023-06-29T16:07:10.004Z,48.18
2023-06-29T16:09:38.418Z,48.22
2023-06-29T16:12:06.739Z,47.98
2023-06-29T16:14:34.097Z,47.82
2023-06-29T16:17:04.018Z,47.45
2023-06-29T16:19:30.818Z,47.77
2023-06-29T16:21:57.465Z,47.77
2023-06-29T16:24:24.120Z,47.72
2023-06-29T16:26:51.098Z,47.64
2023-06-29T16:29:19.038Z,47.78
2023-06-29T16:31:49.493Z,47.73
2023-06-29T16:34:16.535Z,47.78
2023-06-29T16:36:43.382Z,48.02
2023-06-29T16:39:10.548Z,47.91
2023-06-29T16:41:38.181Z,48.09
2023-06-29T16:44:05.054Z,48.06
2023-06-29T16:46:31.818Z,48.37
2023-06-29T16:49:00.750Z,48.81
2023-06-29T16:51:29.408Z,48.92
2023-06-29T16:53:58.017Z,50.06
2023-06-29T16:56:27.599Z,49.96
2023-06-29T16:58:55.410Z,50.04
2023-06-29T17:01:22.399Z,49.90
2023-06-29T17:03:49.423Z,49.77
2023-06-29T17:06:16.358Z,49.94
2023-06-29T17:08:43.058Z,49.57
2023-06-29T17:11:09.850Z,49.71
2023-06-29T17:13:36.636Z,49.47
2023-06-29T17:16:04.594Z,49.52
2023-06-29T17:18:31.645Z,49.41
2023-06-29T17:20:58.438Z,49.21
2023-06-29T17:23:25.159Z,49.20
2023-06-29T17:25:52.612Z,49.06
2023-06-29T17:28:21.352Z,49.82
2023-06-29T17:30:48.293Z,49.78
2023-06-29T17:33:15.632Z,49.96
2023-06-29T17:35:42.940Z,49.88
2023-06-29T17:38:10.923Z,49.76
2023-06-29T17:43:36.648Z,51.68
2023-06-29T17:46:39.776Z,50.86
2023-06-29T17:49:06.818Z,50.49
2023-06-29T17:51:33.845Z,50.12
2023-06-29T17:54:00.824Z,50.31
2023-06-29T17:56:31.313Z,50.62
2023-06-29T17:58:58.289Z,50.75
2023-06-29T18:01:25.130Z,50.62
2023-06-29T18:03:52.227Z,50.56
2023-06-29T18:06:22.134Z,50.37
2023-06-29T18:08:49.483Z,50.36
2023-06-29T18:11:16.260Z,50.28
2023-06-29T18:13:43.196Z,50.24
2023-06-29T18:19:35.898Z,50.74
2023-06-29T18:22:26.248Z,50.57
2023-06-29T18:27:55.564Z,50.67
2023-06-29T18:30:22.446Z,50.20
2023-06-29T18:32:49.572Z,50.62
2023-06-29T18:35:18.143Z,50.74
2023-06-29T18:37:46.698Z,50.87
2023-06-29T18:40:17.200Z,51.07
2023-06-29T18:42:44.319Z,50.61
2023-06-29T18:45:12.487Z,50.66
2023-06-29T18:47:39.272Z,50.82
2023-06-29T18:50:07.600Z,50.97
2023-06-29T18:52:34.892Z,51.12
2023-06-29T18:55:02.278Z,51.06
2023-06-29T18:57:29.394Z,51.59
2023-06-29T18:59:57.375Z,51.52
2023-06-29T19:02:24.060Z,51.84
2023-06-29T19:04:50.964Z,52.04
2023-06-29T19:07:18.255Z,52.03
2023-06-29T19:09:45.694Z,52.93
2023-06-29T19:12:14.264Z,53.20
2023-06-29T19:14:41.396Z,53.11
2023-06-29T19:17:08.135Z,53.23
2023-06-29T19:19:36.199Z,53.48
2023-06-29T19:22:03.290Z,53.59
2023-06-29T19:24:30.306Z,54.08
2023-06-29T19:27:01.308Z,54.58
2023-06-29T19:29:28.519Z,55.00
2023-06-29T19:31:55.299Z,55.07
2023-06-29T19:34:22.046Z,54.87
2023-06-29T19:36:49.012Z,54.94
2023-06-29T19:39:15.814Z,54.75
2023-06-29T19:41:42.718Z,55.13
2023-06-29T19:44:09.458Z,55.39
2023-06-29T19:46:36.319Z,55.66
2023-06-29T19:49:04.153Z,56.04
2023-06-29T19:51:35.297Z,56.28
2023-06-29T19:54:02.193Z,56.08
2023-06-29T19:56:29.344Z,56.11
2023-06-29T19:58:56.146Z,56.23
2023-06-29T20:01:22.965Z,56.40
2023-06-29T20:03:49.864Z,56.78
2023-06-29T20:06:16.579Z,56.32
2023-06-29T20:08:43.359Z,56.38
2023-06-29T20:11:10.182Z,56.50
2023-06-29T20:13:36.873Z,56.69
2023-06-29T20:16:03.831Z,56.81
2023-06-29T20:18:33.229Z,57.01
2023-06-29T20:20:59.995Z,57.26
2023-06-29T20:23:26.668Z,57.61
2023-06-29T20:25:53.369Z,57.75
2023-06-29T20:28:20.789Z,57.49
2023-06-29T20:30:47.518Z,57.25
2023-06-29T20:33:14.319Z,57.51
2023-06-29T20:35:41.368Z,57.55
2023-06-29T20:38:09.417Z,57.75
2023-06-29T20:40:36.349Z,58.02
2023-06-29T20:43:02.979Z,57.95
2023-06-29T20:45:29.952Z,58.09
2023-06-29T20:47:57.977Z,58.13
2023-06-29T20:50:26.182Z,58.28
2023-06-29T20:52:53.005Z,58.41
2023-06-29T20:55:19.703Z,58.50
2023-06-29T20:57:46.488Z,58.70
2023-06-29T21:00:14.431Z,58.72
2023-06-29T21:02:42.728Z,59.14
2023-06-29T21:05:10.098Z,59.30
2023-06-29T21:07:37.168Z,59.19
2023-06-29T21:10:04.517Z,59.17
2023-06-29T21:12:31.867Z,59.20
2023-06-29T21:15:00.222Z,59.28
2023-06-29T21:17:27.608Z,59.55
2023-06-29T21:19:54.628Z,59.89
2023-06-29T21:22:21.963Z,59.79
2023-06-29T21:24:50.075Z,60.02
2023-06-29T21:27:20.403Z,59.55
2023-06-29T21:29:49.013Z,59.53
2023-06-29T21:32:17.027Z,59.61
2023-06-29T21:34:44.334Z,59.51
2023-06-29T21:37:11.924Z,59.58
2023-06-29T21:39:38.629Z,59.85
2023-06-29T21:42:06.514Z,60.09
2023-06-29T21:44:33.270Z,60.22
2023-06-29T21:47:03.943Z,60.41
2023-06-29T21:49:32.972Z,60.39
2023-06-29T21:51:59.940Z,60.20
2023-06-29T21:54:27.395Z,60.16
2023-06-29T21:56:54.244Z,60.21
2023-06-29T21:59:20.919Z,59.99
2023-06-29T22:01:48.026Z,60.48
2023-06-29T23:30:21.666Z,63.04
2023-06-29T23:32:50.894Z,63.16
2023-06-29T23:35:18.257Z,63.08
2023-06-29T23:37:45.252Z,62.95
2023-06-29T23:40:12.525Z,63.29
2023-06-29T23:42:39.317Z,63.35
2023-06-29T23:45:10.421Z,63.23
2023-06-29T23:47:39.398Z,63.40
2023-06-29T23:50:12.544Z,63.23
2023-06-29T23:52:40.297Z,63.83
2023-06-29T23:55:12.855Z,64.05
2023-06-29T23:57:40.726Z,64.52
